sensor_id;sensor_type;location;lat;lon;timestamp;P1;durP1;ratioP1;P2;durP2;ratioP2
16075;SDS011;8142;48.242;11.644;2023-04-19T00:00:43;11.23;;;8.60;;
16075;SDS011;8142;48.242;11.644;2023-04-19T00:03:09;11.27;;;8.43;;
16075;SDS011;8142;48.242;11.644;2023-04-19T00:05:35;11.47;;;8.83;;
16075;SDS011;8142;48.242;11.644;2023-04-19T00:08:05;10.87;;;8.30;;
16075;SDS011;8142;48.242;11.644;2023-04-19T00:10:32;12.23;;;8.77;;
16075;SDS011;8142;48.242;11.644;2023-04-19T00:13:00;10.63;;;8.70;;
16075;SDS011;8142;48.242;11.644;2023-04-19T00:15:26;11.67;;;9.17;;
16075;SDS011;8142;48.242;11.644;2023-04-19T00:17:52;11.67;;;9.57;;
16075;SDS011;8142;48.242;11.644;2023-04-19T00:20:19;10.43;;;8.20;;
16075;SDS011;8142;48.242;11.644;2023-04-19T00:22:46;11.80;;;9.73;;
16075;SDS011;8142;48.242;11.644;2023-04-19T00:25:12;10.97;;;9.10;;
16075;SDS011;8142;48.242;11.644;2023-04-19T00:27:38;13.10;;;9.77;;
16075;SDS011;8142;48.242;11.644;2023-04-19T00:30:04;12.30;;;9.73;;
16075;SDS011;8142;48.242;11.644;2023-04-19T00:32:30;13.27;;;9.83;;
16075;SDS011;8142;48.242;11.644;2023-04-19T00:34:56;11.33;;;9.30;;
16075;SDS011;8142;48.242;11.644;2023-04-19T00:37:22;13.53;;;10.30;;
16075;SDS011;8142;48.242;11.644;2023-04-19T00:39:48;13.50;;;10.27;;
16075;SDS011;8142;48.242;11.644;2023-04-19T00:42:14;12.77;;;10.30;;
16075;SDS011;8142;48.242;11.644;2023-04-19T00:44:39;14.00;;;10.77;;
16075;SDS011;8142;48.242;11.644;2023-04-19T00:47:06;14.00;;;10.83;;
16075;SDS011;8142;48.242;11.644;2023-04-19T00:49:32;14.30;;;10.93;;
16075;SDS011;8142;48.242;11.644;2023-04-19T00:51:58;14.87;;;10.67;;
16075;SDS011;8142;48.242;11.644;2023-04-19T00:54:24;13.53;;;10.60;;
16075;SDS011;8142;48.242;11.644;2023-04-19T00:56:50;14.27;;;10.77;;
16075;SDS011;8142;48.242;11.644;2023-04-19T00:59:16;15.50;;;11.73;;
16075;SDS011;8142;48.242;11.644;2023-04-19T01:01:42;14.93;;;11.40;;
16075;SDS011;8142;48.242;11.644;2023-04-19T01:04:09;15.30;;;11.83;;
16075;SDS011;8142;48.242;11.644;2023-04-19T01:06:35;15.40;;;12.03;;
16075;SDS011;8142;48.242;11.644;2023-04-19T01:09:01;16.27;;;12.57;;
16075;SDS011;8142;48.242;11.644;2023-04-19T01:11:27;16.03;;;12.73;;
16075;SDS011;8142;48.242;11.644;2023-04-19T01:13:54;15.60;;;11.87;;
16075;SDS011;8142;48.242;11.644;2023-04-19T01:16:20;16.20;;;12.83;;
16075;SDS011;8142;48.242;11.644;2023-04-19T01:18:47;14.97;;;12.33;;
16075;SDS011;8142;48.242;11.644;2023-04-19T01:21:13;15.07;;;12.17;;
16075;SDS011;8142;48.242;11.644;2023-04-19T01:23:39;17.77;;;12.30;;
16075;SDS011;8142;48.242;11.644;2023-04-19T01:26:05;16.70;;;13.27;;
16075;SDS011;8142;48.242;11.644;2023-04-19T01:28:31;15.70;;;11.83;;
16075;SDS011;8142;48.242;11.644;2023-04-19T01:30:57;15.93;;;12.10;;
16075;SDS011;8142;48.242;11.644;2023-04-19T01:33:23;17.10;;;12.53;;
16075;SDS011;8142;48.242;11.644;2023-04-19T01:35:49;15.33;;;11.70;;
16075;SDS011;8142;48.242;11.644;2023-04-19T01:38:15;15.60;;;12.47;;
16075;SDS011;8142;48.242;11.644;2023-04-19T01:40:41;16.63;;;12.20;;
16075;SDS011;8142;48.242;11.644;2023-04-19T01:43:10;18.37;;;12.83;;
16075;SDS011;8142;48.242;11.644;2023-04-19T01:45:40;16.27;;;12.23;;
16075;SDS011;8142;48.242;11.644;2023-04-19T01:48:06;18.23;;;13.70;;
16075;SDS011;8142;48.242;11.644;2023-04-19T01:50:32;17.63;;;13.30;;
16075;SDS011;8142;48.242;11.644;2023-04-19T01:52:59;19.77;;;14.53;;
16075;SDS011;8142;48.242;11.644;2023-04-19T01:55:25;19.00;;;14.50;;
16075;SDS011;8142;48.242;11.644;2023-04-19T01:57:51;18.20;;;14.10;;
16075;SDS011;8142;48.242;11.644;2023-04-19T02:00:18;18.67;;;14.57;;
16075;SDS011;8142;48.242;11.644;2023-04-19T02:02:44;20.43;;;14.43;;
16075;SDS011;8142;48.242;11.644;2023-04-19T02:05:10;19.57;;;15.17;;
16075;SDS011;8142;48.242;11.644;2023-04-19T02:07:36;20.10;;;14.13;;
16075;SDS011;8142;48.242;11.644;2023-04-19T02:10:02;21.97;;;14.90;;
16075;SDS011;8142;48.242;11.644;2023-04-19T02:12:30;19.93;;;15.57;;
16075;SDS011;8142;48.242;11.644;2023-04-19T02:14:58;20.83;;;15.40;;
16075;SDS011;8142;48.242;11.644;2023-04-19T02:17:26;22.77;;;15.93;;
16075;SDS011;8142;48.242;11.644;2023-04-19T02:19:52;18.77;;;15.27;;
16075;SDS011;8142;48.242;11.644;2023-04-19T02:22:18;21.30;;;15.47;;
16075;SDS011;8142;48.242;11.644;2023-04-19T02:24:44;20.73;;;15.80;;
16075;SDS011;8142;48.242;11.644;2023-04-19T02:27:12;21.07;;;16.33;;
16075;SDS011;8142;48.242;11.644;2023-04-19T02:29:38;22.13;;;16.77;;
16075;SDS011;8142;48.242;11.644;2023-04-19T02:32:04;22.10;;;16.53;;
16075;SDS011;8142;48.242;11.644;2023-04-19T02:34:33;21.40;;;15.90;;
16075;SDS011;8142;48.242;11.644;2023-04-19T02:36:59;21.67;;;15.97;;
16075;SDS011;8142;48.242;11.644;2023-04-19T02:39:26;21.63;;;16.30;;
16075;SDS011;8142;48.242;11.644;2023-04-19T02:41:52;20.97;;;16.23;;
16075;SDS011;8142;48.242;11.644;2023-04-19T02:44:18;21.80;;;16.80;;
16075;SDS011;8142;48.242;11.644;2023-04-19T02:46:47;23.83;;;17.40;;
16075;SDS011;8142;48.242;11.644;2023-04-19T02:49:17;22.73;;;16.93;;
16075;SDS011;8142;48.242;11.644;2023-04-19T02:51:43;25.30;;;16.77;;
16075;SDS011;8142;48.242;11.644;2023-04-19T02:54:12;22.57;;;16.70;;
16075;SDS011;8142;48.242;11.644;2023-04-19T02:56:38;23.07;;;17.10;;
16075;SDS011;8142;48.242;11.644;2023-04-19T02:59:04;23.37;;;17.03;;
16075;SDS011;8142;48.242;11.644;2023-04-19T03:01:30;22.30;;;16.70;;
16075;SDS011;8142;48.242;11.644;2023-04-19T03:03:56;21.53;;;16.33;;
16075;SDS011;8142;48.242;11.644;2023-04-19T03:06:23;22.53;;;16.13;;
16075;SDS011;8142;48.242;11.644;2023-04-19T03:08:48;19.77;;;15.50;;
16075;SDS011;8142;48.242;11.644;2023-04-19T03:11:15;22.70;;;16.37;;
16075;SDS011;8142;48.242;11.644;2023-04-19T03:13:41;23.27;;;16.63;;
16075;SDS011;8142;48.242;11.644;2023-04-19T03:16:07;23.10;;;16.93;;
16075;SDS011;8142;48.242;11.644;2023-04-19T03:18:33;23.87;;;17.63;;
16075;SDS011;8142;48.242;11.644;2023-04-19T03:21:00;24.27;;;17.43;;
16075;SDS011;8142;48.242;11.644;2023-04-19T03:23:27;22.73;;;17.43;;
16075;SDS011;8142;48.242;11.644;2023-04-19T03:25:53;24.63;;;17.63;;
16075;SDS011;8142;48.242;11.644;2023-04-19T03:28:18;23.03;;;16.80;;
16075;SDS011;8142;48.242;11.644;2023-04-19T03:30:44;22.97;;;16.83;;
16075;SDS011;8142;48.242;11.644;2023-04-19T03:33:10;24.93;;;17.77;;
16075;SDS011;8142;48.242;11.644;2023-04-19T03:35:36;24.80;;;17.47;;
16075;SDS011;8142;48.242;11.644;2023-04-19T03:38:02;24.70;;;17.53;;
16075;SDS011;8142;48.242;11.644;2023-04-19T03:40:32;24.60;;;18.10;;
16075;SDS011;8142;48.242;11.644;2023-04-19T03:42:58;25.50;;;18.00;;
16075;SDS011;8142;48.242;11.644;2023-04-19T03:45:24;24.17;;;17.40;;
16075;SDS011;8142;48.242;11.644;2023-04-19T03:47:50;27.80;;;18.80;;
16075;SDS011;8142;48.242;11.644;2023-04-19T03:50:16;25.17;;;18.07;;
16075;SDS011;8142;48.242;11.644;2023-04-19T03:52:42;25.93;;;17.90;;
16075;SDS011;8142;48.242;11.644;2023-04-19T03:55:08;24.20;;;17.70;;
16075;SDS011;8142;48.242;11.644;2023-04-19T03:57:35;25.03;;;18.60;;
16075;SDS011;8142;48.242;11.644;2023-04-19T04:00:00;24.23;;;17.70;;
16075;SDS011;8142;48.242;11.644;2023-04-19T04:02:26;26.77;;;18.73;;
16075;SDS011;8142;48.242;11.644;2023-04-19T04:04:55;25.90;;;17.83;;
16075;SDS011;8142;48.242;11.644;2023-04-19T04:07:21;23.60;;;17.90;;
16075;SDS011;8142;48.242;11.644;2023-04-19T04:09:48;28.90;;;19.43;;
16075;SDS011;8142;48.242;11.644;2023-04-19T04:12:14;27.77;;;18.80;;
16075;SDS011;8142;48.242;11.644;2023-04-19T04:14:40;26.13;;;18.17;;
16075;SDS011;8142;48.242;11.644;2023-04-19T04:17:06;29.10;;;20.07;;
16075;SDS011;8142;48.242;11.644;2023-04-19T04:19:32;29.20;;;19.47;;
16075;SDS011;8142;48.242;11.644;2023-04-19T04:21:58;27.93;;;19.83;;
16075;SDS011;8142;48.242;11.644;2023-04-19T04:24:23;28.60;;;18.63;;
16075;SDS011;8142;48.242;11.644;2023-04-19T04:26:50;27.00;;;18.93;;
16075;SDS011;8142;48.242;11.644;2023-04-19T04:29:16;26.90;;;17.90;;
16075;SDS011;8142;48.242;11.644;2023-04-19T04:31:42;28.20;;;19.53;;
16075;SDS011;8142;48.242;11.644;2023-04-19T04:34:08;27.67;;;18.73;;
16075;SDS011;8142;48.242;11.644;2023-04-19T04:36:34;26.60;;;18.07;;
16075;SDS011;8142;48.242;11.644;2023-04-19T04:39:03;28.03;;;19.43;;
16075;SDS011;8142;48.242;11.644;2023-04-19T04:41:30;27.90;;;18.07;;
16075;SDS011;8142;48.242;11.644;2023-04-19T04:43:56;25.00;;;17.37;;
16075;SDS011;8142;48.242;11.644;2023-04-19T04:46:24;25.13;;;17.53;;
16075;SDS011;8142;48.242;11.644;2023-04-19T04:48:51;30.93;;;19.00;;
16075;SDS011;8142;48.242;11.644;2023-04-19T04:51:17;27.77;;;18.10;;
16075;SDS011;8142;48.242;11.644;2023-04-19T04:53:43;28.77;;;17.60;;
16075;SDS011;8142;48.242;11.644;2023-04-19T04:56:09;26.30;;;18.37;;
16075;SDS011;8142;48.242;11.644;2023-04-19T04:58:35;28.30;;;18.73;;
16075;SDS011;8142;48.242;11.644;2023-04-19T05:01:01;25.80;;;17.57;;
16075;SDS011;8142;48.242;11.644;2023-04-19T05:03:27;24.93;;;16.90;;
16075;SDS011;8142;48.242;11.644;2023-04-19T05:05:53;24.87;;;16.73;;
16075;SDS011;8142;48.242;11.644;2023-04-19T05:08:19;24.23;;;16.73;;
16075;SDS011;8142;48.242;11.644;2023-04-19T05:10:45;29.07;;;17.03;;
16075;SDS011;8142;48.242;11.644;2023-04-19T05:13:11;24.93;;;17.07;;
16075;SDS011;8142;48.242;11.644;2023-04-19T05:15:44;26.23;;;17.50;;
16075;SDS011;8142;48.242;11.644;2023-04-19T05:18:13;25.97;;;17.40;;
16075;SDS011;8142;48.242;11.644;2023-04-19T05:20:39;28.10;;;17.47;;
16075;SDS011;8142;48.242;11.644;2023-04-19T05:23:04;25.10;;;16.70;;
16075;SDS011;8142;48.242;11.644;2023-04-19T05:25:30;26.67;;;17.83;;
16075;SDS011;8142;48.242;11.644;2023-04-19T05:27:56;24.73;;;16.57;;
16075;SDS011;8142;48.242;11.644;2023-04-19T05:30:22;24.83;;;16.83;;
16075;SDS011;8142;48.242;11.644;2023-04-19T05:32:48;24.70;;;16.53;;
16075;SDS011;8142;48.242;11.644;2023-04-19T05:35:14;24.13;;;16.47;;
16075;SDS011;8142;48.242;11.644;2023-04-19T05:37:40;24.27;;;16.43;;
16075;SDS011;8142;48.242;11.644;2023-04-19T05:40:06;26.37;;;16.97;;
16075;SDS011;8142;48.242;11.644;2023-04-19T05:42:34;25.10;;;16.90;;
16075;SDS011;8142;48.242;11.644;2023-04-19T05:45:00;24.13;;;15.83;;
16075;SDS011;8142;48.242;11.644;2023-04-19T05:47:26;26.03;;;16.90;;
16075;SDS011;8142;48.242;11.644;2023-04-19T05:49:52;26.50;;;16.77;;
16075;SDS011;8142;48.242;11.644;2023-04-19T05:52:17;23.80;;;16.00;;
16075;SDS011;8142;48.242;11.644;2023-04-19T05:54:43;25.17;;;17.07;;
16075;SDS011;8142;48.242;11.644;2023-04-19T05:57:09;25.33;;;16.40;;
16075;SDS011;8142;48.242;11.644;2023-04-19T05:59:35;28.57;;;17.37;;
16075;SDS011;8142;48.242;11.644;2023-04-19T06:02:01;24.90;;;16.10;;
16075;SDS011;8142;48.242;11.644;2023-04-19T06:04:27;24.87;;;16.23;;
16075;SDS011;8142;48.242;11.644;2023-04-19T06:06:53;26.20;;;17.13;;
16075;SDS011;8142;48.242;11.644;2023-04-19T06:09:18;26.57;;;16.43;;
16075;SDS011;8142;48.242;11.644;2023-04-19T06:11:44;27.00;;;16.77;;
16075;SDS011;8142;48.242;11.644;2023-04-19T06:14:11;27.77;;;16.33;;
16075;SDS011;8142;48.242;11.644;2023-04-19T06:16:39;26.47;;;16.93;;
16075;SDS011;8142;48.242;11.644;2023-04-19T06:19:05;30.43;;;18.63;;
16075;SDS011;8142;48.242;11.644;2023-04-19T06:21:34;30.03;;;18.43;;
16075;SDS011;8142;48.242;11.644;2023-04-19T06:24:00;27.83;;;17.33;;
16075;SDS011;8142;48.242;11.644;2023-04-19T06:26:26;25.43;;;17.13;;
16075;SDS011;8142;48.242;11.644;2023-04-19T06:28:52;28.87;;;17.43;;
16075;SDS011;8142;48.242;11.644;2023-04-19T06:31:17;25.67;;;16.53;;
16075;SDS011;8142;48.242;11.644;2023-04-19T06:33:44;25.20;;;16.67;;
16075;SDS011;8142;48.242;11.644;2023-04-19T06:36:10;25.33;;;16.87;;
16075;SDS011;8142;48.242;11.644;2023-04-19T06:38:36;26.43;;;16.80;;
16075;SDS011;8142;48.242;11.644;2023-04-19T06:41:06;26.37;;;16.00;;
16075;SDS011;8142;48.242;11.644;2023-04-19T06:43:33;26.03;;;16.30;;
16075;SDS011;8142;48.242;11.644;2023-04-19T06:45:59;26.67;;;17.07;;
16075;SDS011;8142;48.242;11.644;2023-04-19T06:48:25;27.37;;;17.53;;
16075;SDS011;8142;48.242;11.644;2023-04-19T06:50:52;24.23;;;16.10;;
16075;SDS011;8142;48.242;11.644;2023-04-19T06:53:18;25.23;;;17.00;;
16075;SDS011;8142;48.242;11.644;2023-04-19T06:55:44;24.80;;;16.03;;
16075;SDS011;8142;48.242;11.644;2023-04-19T06:58:10;25.70;;;16.13;;
16075;SDS011;8142;48.242;11.644;2023-04-19T07:00:36;27.73;;;17.63;;
16075;SDS011;8142;48.242;11.644;2023-04-19T07:03:02;26.10;;;16.70;;
16075;SDS011;8142;48.242;11.644;2023-04-19T07:05:28;26.83;;;17.33;;
16075;SDS011;8142;48.242;11.644;2023-04-19T07:07:55;25.97;;;16.80;;
16075;SDS011;8142;48.242;11.644;2023-04-19T07:10:21;28.83;;;17.37;;
16075;SDS011;8142;48.242;11.644;2023-04-19T07:12:47;26.33;;;17.37;;
16075;SDS011;8142;48.242;11.644;2023-04-19T07:15:13;26.77;;;16.27;;
16075;SDS011;8142;48.242;11.644;2023-04-19T07:17:39;27.23;;;16.77;;
16075;SDS011;8142;48.242;11.644;2023-04-19T07:20:05;24.90;;;16.47;;
16075;SDS011;8142;48.242;11.644;2023-04-19T07:22:32;25.60;;;16.90;;
16075;SDS011;8142;48.242;11.644;2023-04-19T07:24:57;25.83;;;16.57;;
16075;SDS011;8142;48.242;11.644;2023-04-19T07:27:24;27.47;;;17.17;;
16075;SDS011;8142;48.242;11.644;2023-04-19T07:29:50;24.37;;;15.90;;
16075;SDS011;8142;48.242;11.644;2023-04-19T07:32:16;22.77;;;16.60;;
16075;SDS011;8142;48.242;11.644;2023-04-19T07:34:42;22.77;;;15.33;;
16075;SDS011;8142;48.242;11.644;2023-04-19T07:37:09;22.50;;;15.57;;
16075;SDS011;8142;48.242;11.644;2023-04-19T07:39:35;21.40;;;14.87;;
16075;SDS011;8142;48.242;11.644;2023-04-19T07:42:01;21.23;;;14.30;;
16075;SDS011;8142;48.242;11.644;2023-04-19T07:44:27;22.83;;;14.63;;
16075;SDS011;8142;48.242;11.644;2023-04-19T07:46:53;21.37;;;14.73;;
16075;SDS011;8142;48.242;11.644;2023-04-19T07:49:18;22.33;;;15.57;;
16075;SDS011;8142;48.242;11.644;2023-04-19T07:51:45;22.73;;;15.17;;
16075;SDS011;8142;48.242;11.644;2023-04-19T07:54:10;22.03;;;14.67;;
16075;SDS011;8142;48.242;11.644;2023-04-19T07:56:36;20.27;;;13.80;;
16075;SDS011;8142;48.242;11.644;2023-04-19T07:59:02;24.23;;;14.07;;
16075;SDS011;8142;48.242;11.644;2023-04-19T08:01:28;22.47;;;14.33;;
16075;SDS011;8142;48.242;11.644;2023-04-19T08:03:54;20.77;;;14.07;;
16075;SDS011;8142;48.242;11.644;2023-04-19T08:06:20;18.43;;;13.33;;
16075;SDS011;8142;48.242;11.644;2023-04-19T08:08:46;18.17;;;13.27;;
16075;SDS011;8142;48.242;11.644;2023-04-19T08:11:13;20.10;;;13.57;;
16075;SDS011;8142;48.242;11.644;2023-04-19T08:13:38;19.77;;;13.43;;
16075;SDS011;8142;48.242;11.644;2023-04-19T08:16:05;19.43;;;13.80;;
16075;SDS011;8142;48.242;11.644;2023-04-19T08:18:31;19.87;;;13.30;;
16075;SDS011;8142;48.242;11.644;2023-04-19T08:20:58;18.60;;;13.90;;
16075;SDS011;8142;48.242;11.644;2023-04-19T08:23:24;19.77;;;13.67;;
16075;SDS011;8142;48.242;11.644;2023-04-19T08:25:50;18.03;;;13.33;;
16075;SDS011;8142;48.242;11.644;2023-04-19T08:28:16;20.40;;;13.47;;
16075;SDS011;8142;48.242;11.644;2023-04-19T08:30:43;20.17;;;13.87;;
16075;SDS011;8142;48.242;11.644;2023-04-19T08:33:09;22.33;;;13.70;;
16075;SDS011;8142;48.242;11.644;2023-04-19T08:35:36;18.07;;;13.27;;
16075;SDS011;8142;48.242;11.644;2023-04-19T08:38:03;17.67;;;13.07;;
16075;SDS011;8142;48.242;11.644;2023-04-19T08:40:29;16.27;;;11.87;;
16075;SDS011;8142;48.242;11.644;2023-04-19T08:42:56;13.97;;;10.90;;
16075;SDS011;8142;48.242;11.644;2023-04-19T08:45:22;17.87;;;12.07;;
16075;SDS011;8142;48.242;11.644;2023-04-19T08:47:51;16.80;;;12.27;;
16075;SDS011;8142;48.242;11.644;2023-04-19T08:50:19;16.27;;;12.13;;
16075;SDS011;8142;48.242;11.644;2023-04-19T08:52:46;18.07;;;12.90;;
16075;SDS011;8142;48.242;11.644;2023-04-19T08:55:12;17.10;;;12.27;;
16075;SDS011;8142;48.242;11.644;2023-04-19T08:57:40;21.43;;;12.47;;
16075;SDS011;8142;48.242;11.644;2023-04-19T09:00:06;16.17;;;11.73;;
16075;SDS011;8142;48.242;11.644;2023-04-19T09:02:49;17.47;;;11.87;;
16075;SDS011;8142;48.242;11.644;2023-04-19T09:05:16;16.53;;;11.87;;
16075;SDS011;8142;48.242;11.644;2023-04-19T09:07:43;18.20;;;12.33;;
16075;SDS011;8142;48.242;11.644;2023-04-19T09:10:17;17.10;;;12.00;;
16075;SDS011;8142;48.242;11.644;2023-04-19T09:13:00;19.00;;;13.33;;
16075;SDS011;8142;48.242;11.644;2023-04-19T09:15:36;18.30;;;12.50;;
16075;SDS011;8142;48.242;11.644;2023-04-19T09:18:04;17.67;;;12.97;;
16075;SDS011;8142;48.242;11.644;2023-04-19T09:20:35;19.73;;;13.63;;
16075;SDS011;8142;48.242;11.644;2023-04-19T09:23:02;18.57;;;13.87;;
16075;SDS011;8142;48.242;11.644;2023-04-19T09:25:30;20.17;;;13.83;;
16075;SDS011;8142;48.242;11.644;2023-04-19T09:28:11;19.43;;;13.37;;
16075;SDS011;8142;48.242;11.644;2023-04-19T09:30:39;20.80;;;14.73;;
16075;SDS011;8142;48.242;11.644;2023-04-19T09:33:05;20.47;;;14.00;;
16075;SDS011;8142;48.242;11.644;2023-04-19T09:35:39;19.70;;;13.63;;
16075;SDS011;8142;48.242;11.644;2023-04-19T09:38:06;23.67;;;14.80;;
16075;SDS011;8142;48.242;11.644;2023-04-19T09:40:32;21.80;;;14.50;;
16075;SDS011;8142;48.242;11.644;2023-04-19T09:42:58;20.83;;;14.80;;
16075;SDS011;8142;48.242;11.644;2023-04-19T09:45:25;19.93;;;14.27;;
16075;SDS011;8142;48.242;11.644;2023-04-19T09:48:05;22.87;;;15.43;;
16075;SDS011;8142;48.242;11.644;2023-04-19T09:50:34;22.40;;;14.47;;
16075;SDS011;8142;48.242;11.644;2023-04-19T09:53:01;20.30;;;13.00;;
16075;SDS011;8142;48.242;11.644;2023-04-19T09:55:28;18.90;;;13.73;;
16075;SDS011;8142;48.242;11.644;2023-04-19T09:57:55;19.53;;;13.03;;
16075;SDS011;8142;48.242;11.644;2023-04-19T10:00:21;18.57;;;13.07;;
16075;SDS011;8142;48.242;11.644;2023-04-19T10:02:48;20.73;;;14.13;;
16075;SDS011;8142;48.242;11.644;2023-04-19T10:05:20;17.37;;;13.47;;
16075;SDS011;8142;48.242;11.644;2023-04-19T10:07:47;20.30;;;14.23;;
16075;SDS011;8142;48.242;11.644;2023-04-19T10:10:14;18.37;;;13.17;;
16075;SDS011;8142;48.242;11.644;2023-04-19T10:12:43;18.37;;;14.20;;
16075;SDS011;8142;48.242;11.644;2023-04-19T10:15:13;23.50;;;14.13;;
16075;SDS011;8142;48.242;11.644;2023-04-19T10:17:40;19.67;;;13.60;;
16075;SDS011;8142;48.242;11.644;2023-04-19T10:20:07;19.30;;;13.13;;
16075;SDS011;8142;48.242;11.644;2023-04-19T10:22:37;21.67;;;14.43;;
16075;SDS011;8142;48.242;11.644;2023-04-19T10:25:13;20.53;;;13.77;;
16075;SDS011;8142;48.242;11.644;2023-04-19T10:27:40;16.97;;;12.73;;
16075;SDS011;8142;48.242;11.644;2023-04-19T10:30:20;19.47;;;12.87;;
16075;SDS011;8142;48.242;11.644;2023-04-19T10:32:51;18.43;;;12.43;;
16075;SDS011;8142;48.242;11.644;2023-04-19T10:35:24;18.87;;;12.30;;
16075;SDS011;8142;48.242;11.644;2023-04-19T10:38:12;17.07;;;13.00;;
16075;SDS011;8142;48.242;11.644;2023-04-19T10:40:56;15.90;;;12.70;;
16075;SDS011;8142;48.242;11.644;2023-04-19T10:43:34;18.93;;;12.93;;
16075;SDS011;8142;48.242;11.644;2023-04-19T10:46:02;17.40;;;12.20;;
16075;SDS011;8142;48.242;11.644;2023-04-19T10:51:21;15.77;;;11.10;;
16075;SDS011;8142;48.242;11.644;2023-04-19T10:56:20;19.80;;;12.37;;
16075;SDS011;8142;48.242;11.644;2023-04-19T10:59:11;16.43;;;11.87;;
16075;SDS011;8142;48.242;11.644;2023-04-19T11:14:29;21.17;;;14.20;;
16075;SDS011;8142;48.242;11.644;2023-04-19T11:16:57;20.37;;;14.93;;
16075;SDS011;8142;48.242;11.644;2023-04-19T11:19:24;23.40;;;15.70;;
16075;SDS011;8142;48.242;11.644;2023-04-19T11:21:50;23.43;;;16.13;;
16075;SDS011;8142;48.242;11.644;2023-04-19T11:24:16;22.63;;;16.40;;
16075;SDS011;8142;48.242;11.644;2023-04-19T11:26:45;24.30;;;16.60;;
16075;SDS011;8142;48.242;11.644;2023-04-19T11:29:12;25.27;;;17.10;;
16075;SDS011;8142;48.242;11.644;2023-04-19T11:31:38;24.97;;;17.47;;
16075;SDS011;8142;48.242;11.644;2023-04-19T11:34:04;24.37;;;16.97;;
16075;SDS011;8142;48.242;11.644;2023-04-19T11:36:30;28.47;;;17.77;;
16075;SDS011;8142;48.242;11.644;2023-04-19T11:38:56;29.70;;;17.13;;
16075;SDS011;8142;48.242;11.644;2023-04-19T11:41:22;24.83;;;17.07;;
16075;SDS011;8142;48.242;11.644;2023-04-19T11:43:48;24.10;;;17.03;;
16075;SDS011;8142;48.242;11.644;2023-04-19T11:46:14;25.73;;;17.13;;
16075;SDS011;8142;48.242;11.644;2023-04-19T11:48:50;23.43;;;17.43;;
16075;SDS011;8142;48.242;11.644;2023-04-19T11:51:17;26.57;;;18.23;;
16075;SDS011;8142;48.242;11.644;2023-04-19T11:53:43;26.63;;;17.97;;
16075;SDS011;8142;48.242;11.644;2023-04-19T11:56:09;24.60;;;18.20;;
16075;SDS011;8142;48.242;11.644;2023-04-19T11:58:40;22.93;;;15.37;;
16075;SDS011;8142;48.242;11.644;2023-04-19T12:01:16;13.77;;;10.40;;
16075;SDS011;8142;48.242;11.644;2023-04-19T12:03:44;14.83;;;9.87;;
16075;SDS011;8142;48.242;11.644;2023-04-19T12:06:14;13.13;;;9.90;;
16075;SDS011;8142;48.242;11.644;2023-04-19T12:08:43;13.53;;;9.93;;
16075;SDS011;8142;48.242;11.644;2023-04-19T12:11:13;13.77;;;10.03;;
16075;SDS011;8142;48.242;11.644;2023-04-19T12:13:39;11.77;;;9.10;;
16075;SDS011;8142;48.242;11.644;2023-04-19T12:16:06;13.47;;;9.13;;
16075;SDS011;8142;48.242;11.644;2023-04-19T12:21:38;10.60;;;7.50;;
16075;SDS011;8142;48.242;11.644;2023-04-19T12:24:04;10.33;;;7.70;;
16075;SDS011;8142;48.242;11.644;2023-04-19T12:26:30;11.03;;;8.23;;
16075;SDS011;8142;48.242;11.644;2023-04-19T12:28:58;12.87;;;8.53;;
16075;SDS011;8142;48.242;11.644;2023-04-19T12:31:26;10.60;;;8.17;;
16075;SDS011;8142;48.242;11.644;2023-04-19T12:33:54;10.87;;;8.27;;
16075;SDS011;8142;48.242;11.644;2023-04-19T12:36:20;12.13;;;7.83;;
16075;SDS011;8142;48.242;11.644;2023-04-19T12:38:46;11.27;;;8.17;;
16075;SDS011;8142;48.242;11.644;2023-04-19T12:41:12;12.93;;;8.27;;
16075;SDS011;8142;48.242;11.644;2023-04-19T12:43:38;12.30;;;7.97;;
16075;SDS011;8142;48.242;11.644;2023-04-19T12:46:03;11.60;;;7.90;;
16075;SDS011;8142;48.242;11.644;2023-04-19T12:48:29;9.33;;;7.00;;
16075;SDS011;8142;48.242;11.644;2023-04-19T12:50:55;8.53;;;6.67;;
16075;SDS011;8142;48.242;11.644;2023-04-19T12:53:22;7.40;;;5.83;;
16075;SDS011;8142;48.242;11.644;2023-04-19T12:55:49;6.77;;;5.73;;
16075;SDS011;8142;48.242;11.644;2023-04-19T12:58:15;7.83;;;5.90;;
16075;SDS011;8142;48.242;11.644;2023-04-19T13:00:42;5.83;;;5.10;;
16075;SDS011;8142;48.242;11.644;2023-04-19T13:03:08;6.03;;;5.03;;
16075;SDS011;8142;48.242;11.644;2023-04-19T13:05:36;6.23;;;4.80;;
16075;SDS011;8142;48.242;11.644;2023-04-19T13:08:02;7.27;;;5.17;;
16075;SDS011;8142;48.242;11.644;2023-04-19T13:10:28;6.50;;;4.80;;
16075;SDS011;8142;48.242;11.644;2023-04-19T13:12:54;6.70;;;5.37;;
16075;SDS011;8142;48.242;11.644;2023-04-19T13:15:20;6.33;;;5.17;;
16075;SDS011;8142;48.242;11.644;2023-04-19T13:17:46;6.83;;;5.40;;
16075;SDS011;8142;48.242;11.644;2023-04-19T13:20:12;9.07;;;6.90;;
16075;SDS011;8142;48.242;11.644;2023-04-19T13:22:38;8.10;;;6.07;;
16075;SDS011;8142;48.242;11.644;2023-04-19T13:25:04;8.90;;;6.27;;
16075;SDS011;8142;48.242;11.644;2023-04-19T13:27:30;8.80;;;6.33;;
16075;SDS011;8142;48.242;11.644;2023-04-19T13:29:56;8.07;;;6.40;;
16075;SDS011;8142;48.242;11.644;2023-04-19T13:32:22;9.70;;;7.27;;
16075;SDS011;8142;48.242;11.644;2023-04-19T13:34:48;9.30;;;7.20;;
16075;SDS011;8142;48.242;11.644;2023-04-19T13:37:14;10.57;;;7.07;;
16075;SDS011;8142;48.242;11.644;2023-04-19T13:39:40;8.33;;;6.53;;
16075;SDS011;8142;48.242;11.644;2023-04-19T13:42:05;8.93;;;6.87;;
16075;SDS011;8142;48.242;11.644;2023-04-19T13:44:31;10.17;;;5.60;;
16075;SDS011;8142;48.242;11.644;2023-04-19T13:46:59;8.63;;;5.73;;
16075;SDS011;8142;48.242;11.644;2023-04-19T13:49:25;6.30;;;3.53;;
16075;SDS011;8142;48.242;11.644;2023-04-19T13:51:51;5.33;;;3.70;;
16075;SDS011;8142;48.242;11.644;2023-04-19T13:54:17;5.30;;;3.57;;
16075;SDS011;8142;48.242;11.644;2023-04-19T13:56:43;6.07;;;4.20;;
16075;SDS011;8142;48.242;11.644;2023-04-19T13:59:09;4.97;;;3.90;;
16075;SDS011;8142;48.242;11.644;2023-04-19T14:01:35;4.80;;;3.80;;
16075;SDS011;8142;48.242;11.644;2023-04-19T14:04:01;5.17;;;4.10;;
16075;SDS011;8142;48.242;11.644;2023-04-19T14:06:27;5.80;;;4.40;;
16075;SDS011;8142;48.242;11.644;2023-04-19T14:08:53;6.57;;;4.43;;
16075;SDS011;8142;48.242;11.644;2023-04-19T14:11:19;8.20;;;5.77;;
16075;SDS011;8142;48.242;11.644;2023-04-19T14:13:45;9.23;;;6.07;;
16075;SDS011;8142;48.242;11.644;2023-04-19T14:16:12;10.73;;;6.60;;
16075;SDS011;8142;48.242;11.644;2023-04-19T14:18:38;11.00;;;6.50;;
16075;SDS011;8142;48.242;11.644;2023-04-19T14:21:04;10.90;;;7.00;;
16075;SDS011;8142;48.242;11.644;2023-04-19T14:23:31;10.83;;;7.00;;
16075;SDS011;8142;48.242;11.644;2023-04-19T14:25:58;10.10;;;7.40;;
16075;SDS011;8142;48.242;11.644;2023-04-19T14:28:23;10.47;;;7.93;;
16075;SDS011;8142;48.242;11.644;2023-04-19T14:30:50;9.77;;;7.40;;
16075;SDS011;8142;48.242;11.644;2023-04-19T14:33:15;11.00;;;7.27;;
16075;SDS011;8142;48.242;11.644;2023-04-19T14:35:41;11.77;;;7.97;;
16075;SDS011;8142;48.242;11.644;2023-04-19T14:38:07;11.33;;;8.03;;
16075;SDS011;8142;48.242;11.644;2023-04-19T14:40:33;11.33;;;7.10;;
16075;SDS011;8142;48.242;11.644;2023-04-19T14:42:59;10.83;;;7.00;;
16075;SDS011;8142;48.242;11.644;2023-04-19T14:45:25;7.97;;;6.00;;